Time;durP1;ratioP1;P1;durP2;ratioP2;P2;SDS_P1;SDS_P2;PMS_P1;PMS_P2;Temp;Humidity;BMP_temperature;BMP_pressure;BME280_temperature;BME280_humidity;BME280_pressure;Samples;Min_cycle;Max_cycle;Signal;HPM_P1;HPM_P2
2022/03/21 00:00:36;;;;;;;15.07;6.85;;;9.10;44.40;;;;;;5013262;28;20038;-68
2022/03/21 00:03:02;;;;;;;13.20;6.85;;;9.00;44.20;;;;;;5011791;28;20045;-68
2022/03/21 00:05:30;;;;;;;14.48;6.63;;;9.00;44.40;;;;;;5013359;28;20026;-68
2022/03/21 00:07:56;;;;;;;13.23;6.75;;;9.00;44.30;;;;;;5013313;28;20049;-68
2022/03/21 00:10:22;;;;;;;20.38;7.45;;;9.00;44.40;;;;;;5012912;28;20037;-67
2022/03/21 00:12:49;;;;;;;15.90;7.20;;;8.90;44.60;;;;;;5013332;28;20025;-67
2022/03/21 00:15:15;;;;;;;12.95;7.40;;;9.00;44.70;;;;;;5013085;28;20038;-69
2022/03/21 00:17:41;;;;;;;13.85;7.25;;;8.90;44.60;;;;;;5012785;28;20566;-68
2022/03/21 00:20:11;;;;;;;15.32;6.78;;;8.90;44.60;;;;;;5012587;28;20045;-67
2022/03/21 00:22:38;;;;;;;15.88;6.88;;;8.90;44.60;;;;;;5012905;28;20033;-67
2022/03/21 00:25:05;;;;;;;13.10;6.53;;;8.80;44.70;;;;;;5013648;28;20144;-68
2022/03/21 00:27:32;;;;;;;13.13;6.95;;;8.80;44.90;;;;;;5012783;28;20116;-68
2022/03/21 00:29:57;;;;;;;16.25;7.45;;;8.80;45.20;;;;;;5012610;28;20030;-69
2022/03/21 00:32:23;;;;;;;15.40;7.63;;;8.80;45.30;;;;;;5012876;28;20038;-68
2022/03/21 00:34:49;;;;;;;16.23;7.47;;;8.80;45.30;;;;;;5012597;28;20160;-68
2022/03/21 00:37:14;;;;;;;15.82;7.50;;;8.70;45.30;;;;;;5012658;28;20030;-69
2022/03/21 00:39:41;;;;;;;19.27;8.20;;;8.70;45.20;;;;;;5012891;28;20108;-68
2022/03/21 00:42:10;;;;;;;18.23;7.45;;;8.60;45.30;;;;;;5008174;28;20534;-69
2022/03/21 00:44:36;;;;;;;14.77;7.80;;;8.60;45.40;;;;;;5004339;28;20038;-68
2022/03/21 00:47:02;;;;;;;19.25;6.85;;;8.60;45.40;;;;;;5012492;28;20026;-67
2022/03/21 00:49:28;;;;;;;16.58;7.85;;;8.50;45.50;;;;;;5012424;28;20403;-68
2022/03/21 00:51:53;;;;;;;15.27;7.40;;;8.40;45.60;;;;;;5012849;28;20034;-68
2022/03/21 00:54:19;;;;;;;14.30;7.10;;;8.40;45.80;;;;;;5012273;28;20460;-68
2022/03/21 00:56:44;;;;;;;14.93;7.45;;;8.50;45.60;;;;;;5012236;28;20034;-68
2022/03/21 00:59:10;;;;;;;15.27;7.28;;;8.50;45.60;;;;;;5012187;28;20481;-69
2022/03/21 01:01:35;;;;;;;12.80;6.70;;;8.50;45.90;;;;;;5011950;28;20037;-68
2022/03/21 01:04:01;;;;;;;11.90;7.38;;;8.60;46.10;;;;;;5027823;28;20451;-68
2022/03/21 01:06:26;;;;;;;18.95;7.35;;;8.50;46.10;;;;;;5012070;28;20125;-68
2022/03/21 01:08:52;;;;;;;13.23;6.47;;;8.40;46.30;;;;;;5010769;28;20440;-69
2022/03/21 01:11:18;;;;;;;18.98;8.65;;;8.40;46.30;;;;;;5011960;28;20026;-68
2022/03/21 01:13:43;;;;;;;18.58;7.55;;;8.40;46.30;;;;;;5012041;28;20029;-69
2022/03/21 01:16:09;;;;;;;18.10;8.13;;;8.50;46.20;;;;;;5011948;28;20034;-68
2022/03/21 01:18:35;;;;;;;17.60;7.15;;;8.40;46.20;;;;;;5011941;28;20042;-67
2022/03/21 01:21:00;;;;;;;16.60;7.80;;;8.40;46.10;;;;;;5011738;28;20045;-68
2022/03/21 01:23:26;;;;;;;20.00;8.25;;;8.40;46.30;;;;;;5011614;28;20037;-67
2022/03/21 01:25:52;;;;;;;20.30;8.48;;;8.40;46.20;;;;;;5011723;28;20365;-68
2022/03/21 01:28:17;;;;;;;23.30;8.00;;;8.30;46.60;;;;;;5011745;28;20364;-66
2022/03/21 01:30:43;;;;;;;16.45;7.80;;;8.30;46.50;;;;;;5012045;28;20026;-67
2022/03/21 01:33:08;;;;;;;19.10;8.23;;;8.40;46.50;;;;;;5011578;28;20041;-69
2022/03/21 01:35:34;;;;;;;18.08;7.78;;;8.30;46.50;;;;;;5011541;28;20483;-68
2022/03/21 01:37:59;;;;;;;16.95;8.48;;;8.30;46.40;;;;;;5011367;28;20480;-67
2022/03/21 01:40:25;;;;;;;14.40;7.53;;;8.30;46.70;;;;;;5011382;28;20034;-67
2022/03/21 01:42:51;;;;;;;15.32;7.68;;;8.20;46.70;;;;;;5011808;28;20026;-67
2022/03/21 01:45:18;;;;;;;17.08;7.93;;;8.30;46.60;;;;;;5011438;28;20030;-67
2022/03/21 01:47:44;;;;;;;16.33;7.93;;;8.30;46.60;;;;;;5011187;28;20030;-69
2022/03/21 01:50:13;;;;;;;17.88;8.00;;;8.20;46.90;;;;;;5010958;28;20026;-67
2022/03/21 01:52:41;;;;;;;21.52;8.05;;;8.20;46.90;;;;;;5011387;28;20018;-69
2022/03/21 01:57:52;;;;;;;18.67;8.85;;;8.10;47.20;;;;;;5011281;28;20076;-67
2022/03/21 02:00:18;;;;;;;15.25;7.82;;;8.20;47.20;;;;;;5011025;28;20547;-68
2022/03/21 02:02:44;;;;;;;14.25;7.97;;;8.20;47.00;;;;;;5011077;28;20121;-69
2022/03/21 02:05:10;;;;;;;15.75;8.20;;;8.10;47.20;;;;;;5006731;28;20083;-69
2022/03/21 02:07:36;;;;;;;20.27;8.38;;;8.10;47.10;;;;;;4995040;28;20129;-69
2022/03/21 02:10:03;;;;;;;23.10;8.02;;;8.00;47.30;;;;;;5011464;28;20030;-68
2022/03/21 02:12:29;;;;;;;15.75;7.50;;;8.10;47.20;;;;;;5011003;28;20034;-69
2022/03/21 02:14:55;;;;;;;14.88;7.65;;;8.00;47.40;;;;;;5010965;28;20128;-68
2022/03/21 02:17:24;;;;;;;19.20;8.15;;;8.00;47.30;;;;;;5010929;28;20495;-68
2022/03/21 02:19:50;;;;;;;15.73;7.95;;;8.10;47.20;;;;;;5026006;28;20038;-68
2022/03/21 02:22:29;;;;;;;18.23;9.15;;;8.00;46.90;;;;;;5010896;28;20084;-68
2022/03/21 02:25:24;;;;;;;18.48;7.88;;;7.90;47.30;;;;;;5011628;28;20038;-69
2022/03/21 02:27:50;;;;;;;19.48;7.72;;;7.80;47.10;;;;;;5010425;28;20042;-69
2022/03/21 02:30:17;;;;;;;19.63;8.95;;;7.80;47.50;;;;;;5010803;28;20352;-68
2022/03/21 02:32:44;;;;;;;16.38;8.50;;;7.90;47.40;;;;;;5010910;28;20045;-69
2022/03/21 02:35:10;;;;;;;17.92;8.40;;;7.90;47.60;;;;;;5010725;28;20429;-68
2022/03/21 02:37:37;;;;;;;13.63;7.45;;;7.80;47.70;;;;;;5011178;28;20037;-67
2022/03/21 02:40:04;;;;;;;15.80;7.65;;;8.00;47.80;;;;;;5011757;28;20064;-68
2022/03/21 02:42:29;;;;;;;25.60;8.88;;;7.90;47.50;;;;;;5011086;28;20068;-69
2022/03/21 02:44:56;;;;;;;13.95;7.95;;;7.90;47.40;;;;;;5010656;28;20076;-70
2022/03/21 02:47:21;;;;;;;16.63;7.68;;;7.90;47.50;;;;;;5010719;28;20041;-69
2022/03/21 02:49:48;;;;;;;20.95;9.13;;;8.00;47.50;;;;;;5010708;28;20025;-69
2022/03/21 02:52:15;;;;;;;19.50;8.07;;;8.00;47.50;;;;;;5009587;28;20057;-69
2022/03/21 02:54:41;;;;;;;17.40;8.85;;;8.00;47.70;;;;;;5011077;28;20014;-69
2022/03/21 02:57:07;;;;;;;18.77;8.50;;;8.00;47.60;;;;;;5009581;28;20030;-68
2022/03/21 02:59:33;;;;;;;16.58;7.97;;;8.00;47.70;;;;;;5010473;28;20427;-68
2022/03/21 03:01:59;;;;;;;19.17;8.00;;;7.90;47.60;;;;;;5010444;28;20030;-68
2022/03/21 03:04:26;;;;;;;19.42;8.00;;;7.90;47.60;;;;;;5010949;28;20540;-68
2022/03/21 03:06:52;;;;;;;15.53;7.33;;;8.00;47.40;;;;;;5011032;28;20033;-68
2022/03/21 03:09:18;;;;;;;15.35;8.38;;;7.90;47.80;;;;;;5010411;28;20030;-66
2022/03/21 03:11:44;;;;;;;15.45;7.65;;;7.90;47.70;;;;;;5010392;28;20506;-68
2022/03/21 03:14:09;;;;;;;18.63;8.32;;;7.90;47.80;;;;;;5010452;28;20227;-68
2022/03/21 03:16:35;;;;;;;19.35;8.55;;;7.90;47.90;;;;;;5010364;28;20038;-68
2022/03/21 03:19:01;;;;;;;22.25;9.15;;;7.90;48.00;;;;;;5010648;28;20030;-68
2022/03/21 03:21:30;;;;;;;20.58;9.32;;;7.80;48.10;;;;;;5010329;28;20057;-68
2022/03/21 03:23:59;;;;;;;19.35;8.63;;;7.80;48.40;;;;;;5010387;28;20038;-68
2022/03/21 03:26:24;;;;;;;;;;;7.70;48.30;;;;;;5010727;28;20029;-69
2022/03/21 03:28:50;;;;;;;22.90;9.35;;;7.70;48.40;;;;;;5010372;28;19920;-68
2022/03/21 03:31:17;;;;;;;20.95;8.73;;;7.70;48.40;;;;;;5010240;28;20061;-69
2022/03/21 03:33:45;;;;;;;20.08;8.77;;;7.60;48.50;;;;;;5010381;28;20033;-69
2022/03/21 03:36:12;;;;;;;20.77;9.00;;;7.70;48.60;;;;;;5010380;28;20049;-70
2022/03/21 03:38:38;;;;;;;25.00;9.15;;;7.50;48.80;;;;;;5012415;28;20054;-68
2022/03/21 03:41:03;;;;;;;17.33;8.38;;;7.60;48.90;;;;;;5012442;28;20057;-67
2022/03/21 03:43:29;;;;;;;17.75;9.10;;;7.50;49.40;;;;;;5013638;28;20306;-68
2022/03/21 03:45:57;;;;;;;22.92;10.43;;;7.50;48.80;;;;;;5013953;28;20034;-68
2022/03/21 03:48:23;;;;;;;;;;;7.40;49.00;;;;;;5013991;28;20045;-69
2022/03/21 03:50:49;;;;;;;21.30;8.85;;;7.40;49.40;;;;;;5013423;28;19909;-68
2022/03/21 03:53:15;;;;;;;16.98;9.20;;;7.40;49.20;;;;;;5013566;28;20463;-69
2022/03/21 03:55:42;;;;;;;17.35;8.75;;;7.60;49.40;;;;;;5013580;28;20034;-70
2022/03/21 03:58:08;;;;;;;22.45;9.48;;;7.50;49.20;;;;;;5013603;28;20026;-68
2022/03/21 04:00:34;;;;;;;17.08;8.85;;;7.40;49.30;;;;;;5013213;28;20456;-69
2022/03/21 04:05:44;;;;;;;17.60;8.98;;;7.40;49.50;;;;;;5013207;28;20052;-69
2022/03/21 04:08:10;;;;;;;17.17;9.10;;;7.30;49.40;;;;;;5011941;28;20116;-70
2022/03/21 04:10:36;;;;;;;19.85;8.88;;;7.30;49.50;;;;;;5012903;28;20138;-68
2022/03/21 04:13:02;;;;;;;23.05;9.00;;;7.30;49.30;;;;;;5012417;28;20037;-69
2022/03/21 04:15:27;;;;;;;16.27;7.88;;;7.20;49.40;;;;;;5012983;28;20066;-70
2022/03/21 04:17:59;;;;;;;24.77;9.30;;;7.20;49.40;;;;;;5012921;28;20034;-70
2022/03/21 04:20:24;;;;;;;21.15;9.65;;;7.20;49.60;;;;;;5012563;28;20058;-70
2022/03/21 04:22:50;;;;;;;16.00;8.43;;;7.10;49.70;;;;;;5013055;28;20510;-70
2022/03/21 04:25:16;;;;;;;19.95;9.00;;;7.00;49.80;;;;;;5012789;28;20026;-70
2022/03/21 04:27:42;;;;;;;19.92;9.25;;;7.10;49.90;;;;;;5012073;28;20048;-69
2022/03/21 04:30:08;;;;;;;16.83;8.48;;;7.10;50.00;;;;;;5012787;28;20113;-68
2022/03/21 04:32:34;;;;;;;18.70;9.25;;;7.10;49.80;;;;;;5012581;28;20121;-71
2022/03/21 04:35:01;;;;;;;18.73;9.65;;;7.10;50.00;;;;;;5012454;28;20038;-69
2022/03/21 04:37:26;;;;;;;24.00;9.07;;;7.20;50.00;;;;;;5012763;28;20073;-69
2022/03/21 04:39:52;;;;;;;16.95;8.82;;;7.20;50.10;;;;;;5012819;28;20452;-70
2022/03/21 04:42:17;;;;;;;21.10;9.32;;;7.10;50.20;;;;;;5012539;28;20499;-70
2022/03/21 04:44:44;;;;;;;18.67;9.55;;;7.10;50.20;;;;;;5012520;28;20056;-68
2022/03/21 04:47:10;;;;;;;22.75;9.75;;;7.00;50.50;;;;;;5012615;28;20038;-69
2022/03/21 04:49:36;;;;;;;16.90;9.05;;;7.10;50.60;;;;;;5010610;28;20045;-70
2022/03/21 04:52:02;;;;;;;18.60;8.75;;;7.00;50.60;;;;;;5012932;28;20400;-69
2022/03/21 04:54:28;;;;;;;19.90;8.93;;;7.00;50.70;;;;;;5012237;28;20180;-69
2022/03/21 04:56:55;;;;;;;16.92;8.95;;;7.00;50.80;;;;;;5012301;28;20045;-71
2022/03/21 04:59:20;;;;;;;20.00;8.73;;;7.00;50.70;;;;;;5012245;28;20136;-70
2022/03/21 05:01:47;;;;;;;18.00;9.07;;;7.00;50.90;;;;;;5012371;28;20030;-69
2022/03/21 05:04:12;;;;;;;17.73;8.73;;;6.90;51.00;;;;;;5010851;28;20029;-69
2022/03/21 05:06:39;;;;;;;17.42;9.10;;;6.90;51.30;;;;;;5012893;28;20018;-68
2022/03/21 05:09:05;;;;;;;23.13;9.52;;;6.80;51.70;;;;;;5012088;28;20040;-69
2022/03/21 05:11:31;;;;;;;23.50;9.70;;;6.90;51.30;;;;;;5012113;28;20029;-69
2022/03/21 05:13:56;;;;;;;22.98;10.13;;;6.90;51.20;;;;;;5010867;28;20026;-68
2022/03/21 05:16:22;;;;;;;27.75;10.57;;;6.90;51.30;;;;;;5027169;28;20040;-70
2022/03/21 05:18:49;;;;;;;21.65;10.25;;;6.80;51.30;;;;;;5012189;28;20026;-69
2022/03/21 05:21:16;;;;;;;23.38;10.07;;;6.70;51.70;;;;;;5011791;28;20064;-70
2022/03/21 05:31:54;;;;;;;20.67;9.40;;;6.80;51.60;;;;;;5011649;28;20061;-69
2022/03/21 05:37:05;;;;;;;23.27;9.88;;;6.70;52.10;;;;;;5011958;28;20032;-70
2022/03/21 05:39:30;;;;;;;22.42;10.40;;;6.70;51.90;;;;;;5011756;28;20118;-69
2022/03/21 05:41:56;;;;;;;21.98;10.02;;;6.70;52.10;;;;;;5011406;28;20419;-69
2022/03/21 05:44:24;;;;;;;23.77;10.55;;;6.60;52.00;;;;;;5011436;28;20532;-69
2022/03/21 05:46:49;;;;;;;24.30;9.70;;;6.70;52.00;;;;;;5011173;28;20052;-70
2022/03/21 05:49:15;;;;;;;26.17;9.70;;;6.60;52.10;;;;;;5011345;28;20525;-70
2022/03/21 05:51:41;;;;;;;37.60;13.10;;;6.70;52.20;;;;;;5012071;28;20030;-69
2022/03/21 05:54:10;;;;;;;24.10;10.25;;;6.70;52.30;;;;;;5011291;28;20510;-69
2022/03/21 05:56:36;;;;;;;24.65;10.35;;;6.70;52.50;;;;;;5011357;28;20041;-70
2022/03/21 06:01:47;;;;;;;22.02;8.80;;;6.70;52.20;;;;;;5011364;28;20037;-71
2022/03/21 06:04:13;;;;;;;27.38;10.70;;;6.70;52.20;;;;;;5011227;28;20037;-68
2022/03/21 06:06:38;;;;;;;21.63;9.60;;;6.70;52.20;;;;;;5011781;28;20018;-70
2022/03/21 06:09:04;;;;;;;21.77;10.90;;;6.70;52.20;;;;;;5011178;28;20034;-69
2022/03/21 06:11:30;;;;;;;19.77;9.70;;;6.70;52.20;;;;;;5011275;28;20140;-70
2022/03/21 06:13:55;;;;;;;19.33;10.38;;;6.70;51.90;;;;;;5011074;28;20452;-71
2022/03/21 06:16:21;;;;;;;26.45;9.95;;;6.80;52.20;;;;;;5011286;28;20036;-71
2022/03/21 06:18:46;;;;;;;21.35;9.43;;;6.80;52.50;;;;;;5011364;28;20493;-72
2022/03/21 06:21:13;;;;;;;23.90;11.02;;;6.80;52.40;;;;;;5010720;28;20049;-71
2022/03/21 06:23:39;;;;;;;28.00;11.23;;;6.90;52.40;;;;;;5010799;28;20022;-70
2022/03/21 06:26:07;;;;;;;29.48;10.05;;;6.90;52.20;;;;;;5010708;28;20478;-72
2022/03/21 06:28:33;;;;;;;23.98;10.02;;;7.00;52.30;;;;;;5010725;28;20397;-72
2022/03/21 06:31:00;;;;;;;19.00;10.18;;;7.10;52.20;;;;;;5011295;28;20159;-72
2022/03/21 06:33:28;;;;;;;23.63;10.52;;;7.00;52.10;;;;;;5011029;28;20041;-72
2022/03/21 06:35:55;;;;;;;22.83;10.18;;;7.00;52.20;;;;;;5010712;28;20049;-71
2022/03/21 06:38:21;;;;;;;22.27;10.65;;;7.10;52.60;;;;;;5010549;28;20048;-71
2022/03/21 06:40:47;;;;;;;24.23;10.27;;;7.30;52.10;;;;;;5010681;28;20038;-71
2022/03/21 06:43:15;;;;;;;21.15;10.50;;;7.40;52.00;;;;;;5010360;28;20038;-70
2022/03/21 06:45:41;;;;;;;25.25;10.23;;;7.40;52.00;;;;;;5011003;28;20053;-70
2022/03/21 06:48:07;;;;;;;20.20;10.30;;;7.50;51.80;;;;;;5010297;28;20087;-70
2022/03/21 06:50:33;;;;;;;22.10;10.40;;;7.60;51.70;;;;;;5010672;28;20038;-70
2022/03/21 06:52:59;;;;;;;20.60;9.55;;;7.70;51.70;;;;;;5009326;28;20042;-69
2022/03/21 06:55:25;;;;;;;26.85;9.95;;;7.70;51.60;;;;;;5010336;28;20022;-69
2022/03/21 06:57:50;;;;;;;24.20;11.75;;;7.80;51.60;;;;;;5010852;28;20100;-69
2022/03/21 07:00:17;;;;;;;29.92;11.05;;;7.90;51.60;;;;;;5010502;28;20030;-69
2022/03/21 07:02:44;;;;;;;20.70;9.98;;;8.00;51.90;;;;;;5010308;28;20041;-69
2022/03/21 07:05:10;;;;;;;21.30;10.20;;;8.00;51.80;;;;;;5011312;28;20037;-68
2022/03/21 07:07:35;;;;;;;27.67;11.25;;;8.10;52.70;;;;;;5010701;28;20033;-69
2022/03/21 07:10:02;;;;;;;23.15;10.82;;;8.10;52.50;;;;;;5010643;28;20597;-69
2022/03/21 07:12:28;;;;;;;21.77;10.73;;;8.20;51.90;;;;;;5010117;28;20048;-71
2022/03/21 07:14:53;;;;;;;22.15;10.80;;;8.40;51.70;;;;;;5014351;28;20034;-71
2022/03/21 07:17:20;;;;;;;20.58;10.55;;;8.30;51.50;;;;;;5014235;28;20049;-71
2022/03/21 07:19:46;;;;;;;22.27;11.05;;;8.40;51.40;;;;;;5013764;28;20037;-68
2022/03/21 07:22:13;;;;;;;22.15;10.65;;;8.40;51.30;;;;;;5014581;28;20041;-72
2022/03/21 07:24:39;;;;;;;21.27;10.43;;;8.30;51.20;;;;;;5014904;28;20113;-71
2022/03/21 07:27:05;;;;;;;27.98;10.65;;;8.40;51.20;;;;;;5012992;28;20030;-71
2022/03/21 07:29:31;;;;;;;23.13;10.68;;;8.30;51.00;;;;;;5012927;28;20120;-70
2022/03/21 07:31:57;;;;;;;21.92;11.82;;;8.30;50.90;;;;;;5013776;28;20389;-72
2022/03/21 07:34:23;;;;;;;23.45;9.80;;;8.50;51.10;;;;;;5013771;28;20037;-69
2022/03/21 07:36:50;;;;;;;16.98;10.20;;;8.60;51.10;;;;;;5013970;28;20026;-70
2022/03/21 07:39:16;;;;;;;21.67;9.93;;;8.60;50.80;;;;;;5013486;28;20053;-70
2022/03/21 07:41:41;;;;;;;20.60;9.85;;;8.70;50.80;;;;;;5013514;28;20265;-71
2022/03/21 07:44:07;;;;;;;23.70;10.93;;;8.90;50.60;;;;;;5013517;28;20034;-70
2022/03/21 07:49:17;;;;;;;26.65;11.73;;;9.10;50.10;;;;;;5013795;28;20431;-70
2022/03/21 07:51:43;;;;;;;21.42;11.05;;;9.10;49.70;;;;;;5013278;28;20117;-69
2022/03/21 07:54:12;;;;;;;19.27;10.38;;;9.10;49.80;;;;;;5013473;28;20371;-71
2022/03/21 07:56:40;;;;;;;28.35;14.02;;;9.10;49.50;;;;;;5013420;28;20345;-71
2022/03/21 07:59:06;;;;;;;21.02;9.88;;;9.10;49.60;;;;;;5013243;28;20156;-70
2022/03/21 08:01:32;;;;;;;25.70;11.43;;;9.20;49.50;;;;;;5013099;28;20030;-71
2022/03/21 08:04:00;;;;;;;21.25;10.38;;;9.20;49.50;;;;;;5013692;28;20449;-71
2022/03/21 08:06:26;;;;;;;26.45;11.55;;;9.30;49.50;;;;;;5012161;28;20048;-70
2022/03/21 08:08:55;;;;;;;22.00;10.93;;;9.40;49.50;;;;;;5013093;28;20096;-70
2022/03/21 08:11:21;;;;;;;21.05;10.85;;;9.40;49.40;;;;;;5012949;28;20066;-69
2022/03/21 08:13:49;;;;;;;25.10;10.60;;;9.70;49.30;;;;;;5012615;28;20113;-70
2022/03/21 08:16:20;;;;;;;20.83;11.00;;;9.70;49.60;;;;;;5013151;28;20095;-70
2022/03/21 08:18:50;;;;;;;22.05;10.63;;;9.90;49.00;;;;;;5012079;28;20035;-72
2022/03/21 08:21:16;;;;;;;22.63;11.15;;;9.90;48.60;;;;;;5012766;28;20104;-70
2022/03/21 08:23:42;;;;;;;21.25;10.93;;;10.20;47.90;;;;;;5012137;28;20041;-70
2022/03/21 08:26:10;;;;;;;23.77;10.98;;;10.00;47.90;;;;;;5008130;28;20113;-70
2022/03/21 08:28:36;;;;;;;26.80;11.70;;;10.10;47.90;;;;;;4992148;28;20041;-70
2022/03/21 08:31:04;;;;;;;22.27;12.05;;;10.30;47.80;;;;;;4992343;28;20026;-71
2022/03/21 08:33:30;;;;;;;26.00;10.98;;;10.50;47.70;;;;;;4992858;28;20527;-70
2022/03/21 08:35:55;;;;;;;23.08;11.50;;;10.50;48.00;;;;;;4992039;28;20034;-69
2022/03/21 08:38:21;;;;;;;29.98;12.73;;;10.60;47.40;;;;;;4993078;28;20026;-69
2022/03/21 08:40:47;;;;;;;21.42;11.35;;;10.70;47.20;;;;;;4992778;28;20381;-71
2022/03/21 08:43:13;;;;;;;21.67;10.73;;;10.90;47.30;;;;;;4992695;28;20106;-70
2022/03/21 08:45:40;;;;;;;20.00;10.70;;;11.20;47.10;;;;;;4993174;28;20452;-76
2022/03/21 08:48:06;;;;;;;21.75;11.60;;;11.30;46.70;;;;;;4992801;28;20125;-71
2022/03/21 08:50:34;;;;;;;23.40;11.88;;;11.20;46.70;;;;;;4991544;28;20040;-71
2022/03/21 08:53:00;;;;;;;21.85;11.43;;;11.40;46.70;;;;;;4992520;28;20034;-72
2022/03/21 08:55:25;;;;;;;21.90;11.57;;;11.60;47.00;;;;;;4992474;28;20102;-75
2022/03/21 08:57:52;;;;;;;21.58;11.80;;;11.90;46.90;;;;;;4992899;28;20026;-76
2022/03/21 09:00:17;;;;;;;28.38;12.27;;;11.90;46.20;;;;;;4991342;28;20030;-73
2022/03/21 09:02:46;;;;;;;22.05;11.48;;;12.00;46.00;;;;;;4992797;28;20026;-74
2022/03/21 09:05:14;;;;;;;22.08;11.30;;;12.30;46.00;;;;;;4992961;28;20030;-73
2022/03/21 09:07:40;;;;;;;22.88;11.80;;;13.50;45.10;;;;;;4992713;28;20026;-75
2022/03/21 09:10:07;;;;;;;20.92;11.55;;;15.10;44.20;;;;;;4991370;28;20030;-70
2022/03/21 09:12:33;;;;;;;20.65;11.45;;;16.40;42.70;;;;;;4992236;28;20040;-70
2022/03/21 09:14:59;;;;;;;26.48;12.95;;;17.70;41.30;;;;;;4992114;28;20038;-71
2022/03/21 09:17:26;;;;;;;21.55;12.00;;;18.70;39.90;;;;;;4992171;28;20630;-73
2022/03/21 09:19:52;;;;;;;19.08;11.23;;;19.80;39.40;;;;;;4992261;28;20547;-72
2022/03/21 09:22:18;;;;;;;15.90;10.50;;;20.30;37.80;;;;;;4992962;28;20041;-72
2022/03/21 09:24:44;;;;;;;19.85;10.68;;;20.60;36.90;;;;;;4991845;28;20022;-72
2022/03/21 09:27:11;;;;;;;19.60;10.85;;;20.90;36.10;;;;;;4991302;28;20026;-73
2022/03/21 09:29:37;;;;;;;23.70;11.55;;;21.00;34.90;;;;;;4991649;28;20460;-72
2022/03/21 09:32:03;;;;;;;20.55;11.35;;;21.60;36.10;;;;;;4991691;28;20030;-71
2022/03/21 09:34:28;;;;;;;20.05;12.18;;;21.70;35.00;;;;;;4991999;28;20037;-71
2022/03/21 09:36:54;;;;;;;17.45;10.75;;;22.10;35.10;;;;;;4991905;28;20014;-71
2022/03/21 09:39:19;;;;;;;21.73;12.15;;;22.30;33.90;;;;;;4991643;28;20034;-72
2022/03/21 09:41:46;;;;;;;18.55;11.40;;;22.60;34.00;;;;;;4990475;28;20038;-73
2022/03/21 09:44:12;;;;;;;20.30;11.98;;;22.50;32.60;;;;;;4990506;28;20030;-72
2022/03/21 09:46:40;;;;;;;20.05;12.10;;;22.90;33.50;;;;;;4991562;28;20026;-72
2022/03/21 09:49:07;;;;;;;22.38;12.18;;;23.70;32.90;;;;;;4990878;28;20038;-71
2022/03/21 09:51:34;;;;;;;19.25;11.80;;;23.60;32.40;;;;;;4991719;28;20384;-74
2022/03/21 09:54:01;;;;;;;20.60;11.73;;;23.90;32.20;;;;;;4990697;28;20034;-73
2022/03/21 09:56:27;;;;;;;;;;;24.20;31.30;;;;;;4991819;28;20030;-73
2022/03/21 09:58:59;;;;;;;19.50;12.50;;;24.30;31.30;;;;;;4991441;28;19909;-72
2022/03/21 10:01:25;;;;;;;22.17;11.88;;;24.60;30.70;;;;;;4993253;28;20037;-73
2022/03/21 10:03:51;;;;;;;18.50;11.57;;;24.90;30.80;;;;;;5010840;28;20026;-76
2022/03/21 10:06:34;;;;;;;25.95;11.75;;;25.40;30.80;;;;;;5010960;28;20036;-73
2022/03/21 10:09:13;;;;;;;21.88;12.30;;;25.40;29.90;;;;;;5011284;28;20056;-74
2022/03/21 10:11:47;;;;;;;19.05;11.80;;;25.20;29.40;;;;;;5009813;28;20245;-72
2022/03/21 10:14:24;;;;;;;17.33;11.07;;;25.00;29.60;;;;;;5010737;28;20041;-75
2022/03/21 10:17:00;;;;;;;19.77;11.75;;;25.60;30.00;;;;;;5009701;28;20037;-73
2022/03/21 10:19:27;;;;;;;18.63;12.38;;;25.40;29.60;;;;;;5010771;28;20025;-74
2022/03/21 10:22:11;;;;;;;16.52;11.52;;;26.30;29.60;;;;;;5010229;28;20236;-74
2022/03/21 10:24:42;;;;;;;16.70;11.23;;;26.50;29.30;;;;;;5010928;28;20034;-73
2022/03/21 10:27:51;;;;;;;22.30;12.40;;;25.80;29.40;;;;;;5010698;28;20026;-74
2022/03/21 10:30:24;;;;;;;19.10;12.10;;;25.50;29.90;;;;;;5008828;28;20042;-72
2022/03/21 10:32:55;;;;;;;17.13;11.98;;;25.40;29.90;;;;;;5010951;28;20030;-75
2022/03/21 10:35:23;;;;;;;22.58;12.38;;;25.80;29.40;;;;;;5011184;28;20064;-75
2022/03/21 10:37:50;;;;;;;20.30;11.95;;;26.10;29.60;;;;;;5010889;28;20037;-73
2022/03/21 10:40:26;;;;;;;17.63;11.57;;;25.80;29.20;;;;;;5010318;28;20471;-71
2022/03/21 10:42:57;;;;;;;24.20;12.63;;;26.90;29.10;;;;;;5011721;28;20022;-73
2022/03/21 10:45:46;;;;;;;18.60;11.65;;;26.60;28.60;;;;;;5011077;28;20092;-73
2022/03/21 10:48:13;;;;;;;19.83;13.18;;;26.10;28.80;;;;;;5012216;28;20042;-73
2022/03/21 10:50:50;;;;;;;18.05;12.52;;;25.80;29.10;;;;;;5013355;28;20026;-73
2022/03/21 10:53:24;;;;;;;20.27;11.20;;;26.50;29.20;;;;;;5014884;28;20046;-73
2022/03/21 10:56:10;;;;;;;19.63;12.82;;;25.90;29.60;;;;;;5014526;28;20034;-74
2022/03/21 10:58:39;;;;;;;22.50;13.60;;;25.30;29.40;;;;;;5014014;28;20100;-73
2022/03/21 11:01:16;;;;;;;18.17;11.73;;;26.10;29.30;;;;;;5014387;28;20121;-74
2022/03/21 11:03:43;;;;;;;19.75;13.68;;;25.70;29.80;;;;;;5014261;28;20042;-71
2022/03/21 11:06:11;;;;;;;19.88;13.57;;;25.00;29.60;;;;;;5014426;28;20040;-73
2022/03/21 11:08:37;;;;;;;18.15;12.45;;;24.90;29.80;;;;;;5014135;28;20041;-71
2022/03/21 11:11:08;;;;;;;20.55;13.40;;;24.60;29.70;;;;;;5013172;28;20022;-72
2022/03/21 11:13:36;;;;;;;20.45;12.02;;;24.30;29.70;;;;;;5014019;28;20109;-72
2022/03/21 11:16:05;;;;;;;;;;;24.20;29.80;;;;;;5030154;28;20038;-70
2022/03/21 11:18:31;;;;;;;18.50;11.57;;;23.50;29.90;;;;;;5013699;28;20212;-68
2022/03/21 11:20:57;;;;;;;19.17;11.68;;;23.10;30.50;;;;;;5013464;28;20065;-70
2022/03/21 11:23:25;;;;;;;19.42;12.32;;;23.10;32.40;;;;;;5029342;28;20085;-68
2022/03/21 11:26:18;;;;;;;19.10;13.02;;;23.20;31.10;;;;;;5013971;28;20076;-69
2022/03/21 11:29:04;;;;;;;24.48;15.88;;;22.90;30.80;;;;;;5013689;28;20423;-72
2022/03/21 11:32:06;;;;;;;20.58;13.38;;;22.20;31.20;;;;;;5013751;28;20025;-73
2022/03/21 11:34:39;;;;;;;25.33;13.18;;;21.80;31.50;;;;;;5013612;28;20468;-72
2022/03/21 11:37:05;;;;;;;19.77;12.77;;;22.00;31.60;;;;;;5014438;28;20132;-71
2022/03/21 11:39:32;;;;;;;19.10;12.45;;;21.60;31.60;;;;;;5012326;28;20531;-73
2022/03/21 11:42:09;;;;;;;19.25;13.02;;;21.60;31.80;;;;;;5029193;28;20104;-68
2022/03/21 11:44:36;;;;;;;23.38;13.05;;;21.70;31.90;;;;;;5013783;28;20029;-68
2022/03/21 11:47:25;;;;;;;22.98;13.70;;;21.60;31.90;;;;;;5028810;28;20033;-67
2022/03/21 11:49:52;;;;;;;21.67;12.35;;;21.30;32.10;;;;;;5013537;28;20112;-69
2022/03/21 11:52:18;;;;;;;17.40;12.38;;;20.90;32.70;;;;;;5013405;28;20167;-69
2022/03/21 11:54:44;;;;;;;19.35;12.57;;;20.80;32.70;;;;;;5013700;28;20104;-72
2022/03/21 11:57:16;;;;;;;19.63;12.65;;;20.10;33.10;;;;;;5013328;28;20179;-71
2022/03/21 11:59:42;;;;;;;19.00;12.65;;;20.00;33.60;;;;;;5028137;28;20456;-70
2022/03/21 12:02:07;;;;;;;23.42;12.93;;;19.90;33.90;;;;;;5013515;28;20065;-72
2022/03/21 12:04:33;;;;;;;24.05;14.18;;;19.80;33.90;;;;;;5028754;28;20030;-73
2022/03/21 12:07:19;;;;;;;24.27;14.10;;;19.70;34.00;;;;;;5013719;28;20062;-73
2022/03/21 12:09:49;;;;;;;21.60;13.32;;;19.70;34.10;;;;;;5010025;28;20038;-73
2022/03/21 12:12:16;;;;;;;22.73;12.68;;;19.40;34.40;;;;;;5014721;28;20030;-76
2022/03/21 12:14:54;;;;;;;25.60;14.05;;;19.30;34.50;;;;;;5013860;28;20045;-75
2022/03/21 12:17:23;;;;;;;;;;;19.30;34.80;;;;;;5013716;28;20030;-76
2022/03/21 12:19:48;;;;;;;23.83;13.75;;;19.20;34.70;;;;;;5009117;28;20033;-75
2022/03/21 12:22:35;;;;;;;19.95;12.90;;;19.20;34.90;;;;;;5009340;28;20586;-73
2022/03/21 12:25:27;;;;;;;20.77;12.98;;;19.00;35.10;;;;;;4994304;28;20033;-75
2022/03/21 12:27:55;;;;;;;21.15;11.98;;;19.00;35.10;;;;;;5013901;28;20070;-74
2022/03/21 12:30:20;;;;;;;23.77;12.90;;;18.90;35.20;;;;;;5013168;28;20121;-72
2022/03/21 12:32:51;;;;;;;26.45;13.07;;;18.90;35.30;;;;;;5012866;28;20101;-74
2022/03/21 12:35:32;;;;;;;19.50;12.07;;;18.80;35.50;;;;;;5012612;28;20037;-74
2022/03/21 12:38:16;;;;;;;23.15;14.55;;;18.80;35.60;;;;;;5012682;28;20050;-71
2022/03/21 12:40:49;;;;;;;24.00;14.50;;;18.90;35.80;;;;;;5012719;28;20034;-73
2022/03/21 12:43:29;;;;;;;27.90;13.15;;;18.90;35.70;;;;;;5012263;28;20075;-73
2022/03/21 12:46:07;;;;;;;23.80;13.02;;;18.60;35.70;;;;;;5013538;28;20531;-72
2022/03/21 12:48:38;;;;;;;24.85;13.77;;;18.70;35.90;;;;;;5027967;28;20034;-74
2022/03/21 12:51:07;;;;;;;21.10;13.52;;;18.70;35.90;;;;;;5012680;28;20030;-74
2022/03/21 12:53:47;;;;;;;29.33;14.48;;;18.70;35.80;;;;;;5012293;28;20034;-71
2022/03/21 12:56:15;;;;;;;22.27;13.35;;;18.70;36.10;;;;;;5012497;28;20360;-74
2022/03/21 12:58:45;;;;;;;22.85;13.73;;;18.70;36.00;;;;;;5012434;28;20034;-74
2022/03/21 13:01:13;;;;;;;22.02;13.10;;;18.60;36.10;;;;;;5012276;28;20018;-72
2022/03/21 13:03:39;;;;;;;24.03;14.30;;;18.60;36.30;;;;;;5013718;28;20014;-72